Home > Products > Valid Products > MTR

000
SAUS43 KABR 171301
MTR8D3
METAR K8D3 171256Z AUTO 33011KT M05/M08 A3031 RMK AO1 SLP289
T10501083





000
SAUS43 KABR 171201
MTR8D3
METAR K8D3 171156Z AUTO 33009KT M07/M09 A3028 RMK AO1 SLP280 70014
T10721094 11050 21078 53012





000
SAUS43 KABR 171101
MTR8D3
METAR K8D3 171056Z AUTO 33010KT M07/M09 A3026 RMK AO1 SLP273
T10671089





000
SAUS43 KABR 171001
MTR8D3
METAR K8D3 170956Z AUTO 34009KT M07/M08 A3025 RMK AO1 SLP270
T10671083





000
SAUS43 KABR 170901
MTR8D3
METAR K8D3 170856Z AUTO 33008KT M07/M08 A3024 RMK AO1 SLP267
T10671083 53009





000
SAUS43 KABR 170801
MTR8D3
METAR K8D3 170756Z AUTO 34009KT M07/M08 A3023 RMK AO1 SLP261
T10671083





000
SAUS43 KABR 170701
MTR8D3
METAR K8D3 170656Z AUTO 35007KT M06/M08 A3023 RMK AO1 SLP261
T10611083





000
SAUS43 KABR 170602
MTR8D3
METAR K8D3 170556Z AUTO 34010KT M05/M07 A3022 RMK AO1 SLP258
T10501072 10000 21067 400061067 53014





000
SAUS43 KABR 170501
MTR8D3
METAR K8D3 170456Z AUTO 34008KT M06/M08 A3019 RMK AO1 SLP250
T10611078





000
SAUS43 KABR 170401
MTR8D3
METAR K8D3 170356Z AUTO 34006KT M06/M07 A3019 RMK AO1 SLP248
T10611072





000
SAUS43 KABR 170302
MTR8D3
METAR K8D3 170256Z AUTO 01007KT M06/M07 A3017 RMK AO1 SLP244
T10561072 51025





000
SAUS43 KABR 170201
MTR8D3
METAR K8D3 170156Z AUTO 03008KT M02/M06 A3015 RMK AO1 SLP235
T10221056





000
SAUS43 KABR 170101
MTR8D3
METAR K8D3 170056Z AUTO 05015G21KT M01/M05 A3012 RMK AO1 SLP222
T10061050





000
SAUS43 KABR 170001
MTR8D3
METAR K8D3 162356Z AUTO 04014KT 00/M04 A3010 RMK AO1 SLP212
T00001044 10000 21017 53025





000
SAUS43 KABR 162301
MTR8D3
METAR K8D3 162256Z AUTO 05016KT 00/M04 A3007 RMK AO1 SLP203
T00001039





000
SAUS43 KABR 162201
MTR8D3
METAR K8D3 162156Z AUTO 06017KT 00/M04 A3004 RMK AO1 SLP194
T00001039





000
SAUS43 KABR 162101
MTR8D3
METAR K8D3 162056Z AUTO 06016KT M01/M03 A3002 RMK AO1 SLP186
T10061033 53028





000
SAUS43 KABR 162001
MTR8D3
METAR K8D3 161956Z AUTO 06017G25KT M01/M03 A2999 RMK AO1 PK WND
06027/1916 SLP174 T10061033





000
SAUS43 KABR 161901
MTR8D3
METAR K8D3 161856Z AUTO 07019G26KT M01/M03 A2995 RMK AO1 PK WND
08026/1826 SLP163 T10111033





000
SAUS43 KABR 161802
MTR8D3
METAR K8D3 161756Z AUTO 07018KT M02/M03 A2993 RMK AO1 SLP157 P0001
60014 T10171028 11017 21022 51018





000
SAUS43 KABR 161701
MTR8D3
METAR K8D3 161656Z AUTO 07017KT M02/M03 A2993 RMK AO1 SLP156 P0003
T10171028





000
SAUS43 KABR 161601
MTR8D3
METAR K8D3 161556Z AUTO 07017G23KT M02/M03 A2991 RMK AO1 SLP148
P0003 T10221028





000
SAUS43 KABR 161501
MTR8D3
METAR K8D3 161456Z AUTO 08015KT M02/M03 A2988 RMK AO1 SLP138 P0004
60007 T10221028 51010





000
SAUS43 KABR 161401
MTR8D3
METAR K8D3 161356Z AUTO 09015KT M02/M03 A2987 RMK AO1 SLP134 P0003
T10221033





000
SAUS43 KABR 161301
MTR8D3
METAR K8D3 161256Z AUTO 10014KT M02/M04 A2986 RMK AO1 SLP133
T10221039





000
SAUS43 KABR 161201
MTR8D3
METAR K8D3 161156Z AUTO 11014G21KT M02/M05 A2985 RMK AO1 SLP127
T10171050 10006 21017 51003





000
SAUS43 KABR 161102
MTR8D3
METAR K8D3 161056Z AUTO 12016G22KT M02/M06 A2985 RMK AO1 SLP126
T10171056





000
SAUS43 KABR 161001
MTR8D3
METAR K8D3 160956Z AUTO 12018G23KT M01/M06 A2985 RMK AO1 SLP125
T10111056





000
SAUS43 KABR 160901
MTR8D3
METAR K8D3 160856Z AUTO 12017KT M01/M06 A2984 RMK AO1 PK WND
12027/0817 SLP123 T10111061 55006





000
SAUS43 KABR 160757
MTR8D3
METAR K8D3 160756Z AUTO 13021G27KT 00/M09 A2983 RMK AO1 PK WND
13027/0755 SLP119 T00001094





000
SAUS43 KABR 160657
MTR8D3
METAR K8D3 160656Z AUTO 13016KT 00/M09 A2985 RMK AO1 SLP126
T00001094





000
SAUS43 KABR 160557
MTR8D3
METAR K8D3 160556Z AUTO 13018G22KT 00/M09 A2986 RMK AO1 SLP131
T00001094 10017 20000 400221100 58009





000
SAUS43 KABR 160457
MTR8D3
METAR K8D3 160456Z AUTO 13018G24KT 00/M09 A2987 RMK AO1 PK WND
12026/0410 SLP135 T00001094





000
SAUS43 KABR 160357
MTR8D3
METAR K8D3 160356Z AUTO 12016KT 01/M10 A2988 RMK AO1 SLP141
T00061100





000
SAUS43 KABR 160258
MTR8D3
METAR K8D3 160256Z AUTO 12014G21KT 01/M10 A2989 RMK AO1 SLP144
T00061100 55004





000
SAUS43 KABR 160157
MTR8D3
METAR K8D3 160156Z AUTO 12013KT 01/M10 A2989 RMK AO1 SLP145
T00111100





000
SAUS43 KABR 160057
MTR8D3
METAR K8D3 160056Z AUTO 13011KT 01/M10 A2989 RMK AO1 SLP148
T00111100





000
SAUS43 KABR 152357
MTR8D3
METAR K8D3 152356Z AUTO 13016KT 02/M11 A2990 RMK AO1 SLP151
T00171106 10022 21006 56017





000
SAUS43 KABR 152257
MTR8D3
METAR K8D3 152256Z AUTO 14018KT 02/M10 A2991 RMK AO1 SLP154
T00171100





000
SAUS43 KABR 152157
MTR8D3
METAR K8D3 152156Z AUTO 14015KT 02/M09 A2992 RMK AO1 SLP156
T00171094





000
SAUS43 KABR 152057
MTR8D3
METAR K8D3 152056Z AUTO 15017KT 02/M09 A2995 RMK AO1 SLP169
T00171094 56029





000
SAUS43 KABR 151957
MTR8D3
METAR K8D3 151956Z AUTO 15012G20KT 01/M10 A2997 RMK AO1 SLP176
T00111100





000
SAUS43 KABR 151857
MTR8D3
METAR K8D3 151856Z AUTO 16012KT 01/M09 A3000 RMK AO1 SLP186
T00111094





000
SAUS43 KABR 151757
MTR8D3
METAR K8D3 151756Z AUTO 17012KT 00/M09 A3004 RMK AO1 SLP199
T00001089 10000 21100 58031





000
SAUS43 KABR 151657
MTR8D3
METAR K8D3 151656Z AUTO 17010G14KT M02/M09 A3009 RMK AO1 SLP216
T10171089





000
SAUS43 KABR 151557
MTR8D3
METAR K8D3 151556Z AUTO 17008KT M04/M10 A3011 RMK AO1 SLP225
T10441100





000
SAUS43 KABR 151457
MTR8D3
METAR K8D3 151456Z AUTO 17006KT M06/M09 A3014 RMK AO1 SLP235
T10561094 58009





000
SAUS43 KABR 151357
MTR8D3
METAR K8D3 151356Z AUTO 15003KT M07/M13 A3016 RMK AO1 SLP244
T10671128





000
SAUS43 KABR 151257
MTR8D3
METAR K8D3 151256Z AUTO 00000KT M08/M12 A3017 RMK AO1 SLP248
T10781122





000
SAUS43 KABR 151158
MTR8D3
METAR K8D3 151156Z AUTO 00000KT M10/M12 A3016 RMK AO1 SLP245 70002
T11001117 11078 21100 55004





000
SAUS43 KABR 151057
MTR8D3
METAR K8D3 151056Z AUTO 26004KT M09/M12 A3016 RMK AO1 SLP244
T10941117





000
SAUS43 KABR 150957
MTR8D3
METAR K8D3 150956Z AUTO 00000KT M09/M12 A3015 RMK AO1 SLP240
T10891117





000
SAUS43 KABR 150857
MTR8D3
METAR K8D3 150856Z AUTO 06003KT M09/M11 A3018 RMK AO1 SLP249
T10941111 58006





000
SAUS43 KABR 150757
MTR8D3
METAR K8D3 150756Z AUTO 00000KT M09/M11 A3019 RMK AO1 SLP251
T10891106





000
SAUS43 KABR 150658
MTR8D3
METAR K8D3 150656Z AUTO 01004KT M09/M11 A3019 RMK AO1 SLP249
T10891111





000
SAUS43 KABR 150558
MTR8D3
METAR K8D3 150556Z AUTO 34003KT M08/M10 A3019 RMK AO1 SLP251
T10781100 11028 21078 400171078 55000





000
SAUS43 KABR 150457
MTR8D3
METAR K8D3 150456Z AUTO 01004KT M07/M11 A3019 RMK AO1 SLP250
T10721106





000
SAUS43 KABR 150358
MTR8D3
METAR K8D3 150356Z AUTO 02005KT M07/M10 A3019 RMK AO1 SLP250
T10721100





000
SAUS43 KABR 150257
MTR8D3
METAR K8D3 150256Z AUTO 03007KT M06/M09 A3019 RMK AO1 SLP252
T10561089 53010





000
SAUS43 KABR 150157
MTR8D3
METAR K8D3 150156Z AUTO 02009KT M04/M09 A3018 RMK AO1 SLP247
T10441094





000
SAUS43 KABR 150057
MTR8D3
METAR K8D3 150056Z AUTO 02011KT M03/M08 A3017 RMK AO1 SLP243
T10331078





000
SAUS43 KABR 142357
MTR8D3
METAR K8D3 142356Z AUTO 02016KT M03/M07 A3016 RMK AO1 PK WND
02027/2329 SLP243 60002 T10281067 10017 21028 53002





000
SAUS43 KABR 142257
MTR8D3
METAR K8D3 142256Z AUTO 02018KT M02/M06 A3015 RMK AO1 PK WND
01030/2220 SLP238 T10171061





000
SAUS43 KABR 142157
MTR8D3
METAR K8D3 142156Z AUTO 02018KT M01/M06 A3015 RMK AO1 PK WND
02026/2148 SLP236 P0002 T10111056





000
SAUS43 KABR 142057
MTR8D3
METAR K8D3 142056Z AUTO 34022G27KT M02/M06 A3016 RMK AO1 PK WND
33027/2056 SLP238 T10171061 56007





000
SAUS43 KABR 141957
MTR8D3
METAR K8D3 141956Z AUTO 34012G29KT M01/M06 A3016 RMK AO1 PK WND
36029/1947 SLP238 T10111061





000
SAUS43 KABR 141857
MTR8D3
METAR K8D3 141856Z AUTO 35012G20KT 01/M09 A3016 RMK AO1 SLP235
T00111094





000
SAUS43 KABR 141757
MTR8D3
METAR K8D3 141756Z AUTO 33013KT 01/M11 A3018 RMK AO1 SLP242
T00061111 10006 21072 58008





000
SAUS43 KABR 141658
MTR8D3
METAR K8D3 141656Z AUTO 36016G19KT 00/M12 A3019 RMK AO1 SLP246
T00001117





000
SAUS43 KABR 141558
MTR8D3
METAR K8D3 141556Z AUTO 35010G17KT M01/M12 A3020 RMK AO1 SLP248
T10111122





000
SAUS43 KABR 141457
MTR8D3
METAR K8D3 141456Z AUTO 01011KT M02/M13 A3020 RMK AO1 SLP252
T10221128 51007





000
SAUS43 KABR 141357
MTR8D3
METAR K8D3 141356Z AUTO 36012KT M04/M10 A3020 RMK AO1 SLP253
T10391100





    US Dept of Commerce
    National Oceanic and Atmospheric Administration
    National Weather Service
    1325 East West Highway
    Silver Spring, MD 20910
    Page Author: NWS Internet Services Team
Disclaimer
Information Quality
Credits
Glossary
Privacy Policy
Freedom of Information Act (FOIA)
About Us
Career Opportunities